sensor_id;sensor_type;location;lat;lon;timestamp;P1;durP1;ratioP1;P2;durP2;ratioP2
75426;SDS011;64007;50.632;13.700;2023-06-10T00:02:08;5.80;;;3.58;;
75426;SDS011;64007;50.632;13.700;2023-06-10T00:04:34;8.48;;;3.50;;
75426;SDS011;64007;50.632;13.700;2023-06-10T00:07:02;5.32;;;3.25;;
75426;SDS011;64007;50.632;13.700;2023-06-10T00:09:29;8.95;;;3.42;;
75426;SDS011;64007;50.632;13.700;2023-06-10T00:11:55;7.30;;;2.90;;
75426;SDS011;64007;50.632;13.700;2023-06-10T00:14:20;4.07;;;3.00;;
75426;SDS011;64007;50.632;13.700;2023-06-10T00:16:46;5.47;;;3.38;;
75426;SDS011;64007;50.632;13.700;2023-06-10T00:19:12;6.78;;;2.97;;
75426;SDS011;64007;50.632;13.700;2023-06-10T00:21:40;11.40;;;3.10;;
75426;SDS011;64007;50.632;13.700;2023-06-10T00:24:07;10.05;;;3.40;;
75426;SDS011;64007;50.632;13.700;2023-06-10T00:26:39;7.05;;;3.20;;
75426;SDS011;64007;50.632;13.700;2023-06-10T00:29:06;6.95;;;4.35;;
75426;SDS011;64007;50.632;13.700;2023-06-10T00:31:36;7.82;;;4.55;;
75426;SDS011;64007;50.632;13.700;2023-06-10T00:34:03;7.65;;;5.20;;
75426;SDS011;64007;50.632;13.700;2023-06-10T00:36:29;7.38;;;5.45;;
75426;SDS011;64007;50.632;13.700;2023-06-10T00:38:56;8.38;;;5.97;;
75426;SDS011;64007;50.632;13.700;2023-06-10T00:41:22;13.23;;;6.53;;
75426;SDS011;64007;50.632;13.700;2023-06-10T00:43:48;15.02;;;6.90;;
75426;SDS011;64007;50.632;13.700;2023-06-10T00:46:14;14.95;;;7.82;;
75426;SDS011;64007;50.632;13.700;2023-06-10T00:48:41;11.40;;;6.80;;
75426;SDS011;64007;50.632;13.700;2023-06-10T00:51:08;12.77;;;6.57;;
75426;SDS011;64007;50.632;13.700;2023-06-10T00:53:35;7.82;;;5.65;;
75426;SDS011;64007;50.632;13.700;2023-06-10T00:56:02;7.68;;;5.55;;
75426;SDS011;64007;50.632;13.700;2023-06-10T00:58:29;8.18;;;4.80;;
75426;SDS011;64007;50.632;13.700;2023-06-10T01:00:55;6.88;;;3.90;;
75426;SDS011;64007;50.632;13.700;2023-06-10T01:03:20;5.93;;;3.50;;
75426;SDS011;64007;50.632;13.700;2023-06-10T01:05:53;7.57;;;3.20;;
75426;SDS011;64007;50.632;13.700;2023-06-10T01:08:35;6.28;;;3.10;;
75426;SDS011;64007;50.632;13.700;2023-06-10T01:11:03;5.10;;;2.63;;
75426;SDS011;64007;50.632;13.700;2023-06-10T01:13:34;6.28;;;3.10;;
75426;SDS011;64007;50.632;13.700;2023-06-10T01:16:04;5.43;;;3.10;;
75426;SDS011;64007;50.632;13.700;2023-06-10T01:18:31;5.57;;;2.90;;
75426;SDS011;64007;50.632;13.700;2023-06-10T01:20:57;5.90;;;2.90;;
75426;SDS011;64007;50.632;13.700;2023-06-10T01:23:23;3.38;;;2.67;;
75426;SDS011;64007;50.632;13.700;2023-06-10T01:25:51;5.15;;;2.90;;
75426;SDS011;64007;50.632;13.700;2023-06-10T01:28:37;8.02;;;3.33;;
75426;SDS011;64007;50.632;13.700;2023-06-10T01:31:20;6.03;;;2.92;;
75426;SDS011;64007;50.632;13.700;2023-06-10T01:33:59;6.28;;;3.10;;
75426;SDS011;64007;50.632;13.700;2023-06-10T01:36:27;9.45;;;3.22;;
75426;SDS011;64007;50.632;13.700;2023-06-10T01:38:54;8.48;;;2.90;;
75426;SDS011;64007;50.632;13.700;2023-06-10T01:41:21;4.47;;;3.00;;
75426;SDS011;64007;50.632;13.700;2023-06-10T01:43:48;5.45;;;2.80;;
75426;SDS011;64007;50.632;13.700;2023-06-10T01:46:14;3.03;;;2.25;;
75426;SDS011;64007;50.632;13.700;2023-06-10T01:48:41;7.95;;;2.80;;
75426;SDS011;64007;50.632;13.700;2023-06-10T01:51:07;6.63;;;2.45;;
75426;SDS011;64007;50.632;13.700;2023-06-10T01:53:33;3.03;;;2.35;;
75426;SDS011;64007;50.632;13.700;2023-06-10T01:55:59;9.35;;;2.47;;
75426;SDS011;64007;50.632;13.700;2023-06-10T01:58:25;5.85;;;2.70;;
75426;SDS011;64007;50.632;13.700;2023-06-10T02:00:51;7.13;;;2.85;;
75426;SDS011;64007;50.632;13.700;2023-06-10T02:03:16;5.72;;;2.28;;
75426;SDS011;64007;50.632;13.700;2023-06-10T02:05:43;3.28;;;2.40;;
75426;SDS011;64007;50.632;13.700;2023-06-10T02:08:09;6.47;;;2.08;;
75426;SDS011;64007;50.632;13.700;2023-06-10T02:10:35;4.05;;;2.40;;
75426;SDS011;64007;50.632;13.700;2023-06-10T02:13:01;5.65;;;2.38;;
75426;SDS011;64007;50.632;13.700;2023-06-10T02:15:26;4.40;;;2.38;;
75426;SDS011;64007;50.632;13.700;2023-06-10T02:17:52;4.25;;;2.38;;
75426;SDS011;64007;50.632;13.700;2023-06-10T02:20:19;4.32;;;2.03;;
75426;SDS011;64007;50.632;13.700;2023-06-10T02:22:46;3.25;;;2.33;;
75426;SDS011;64007;50.632;13.700;2023-06-10T02:25:12;5.63;;;2.40;;
75426;SDS011;64007;50.632;13.700;2023-06-10T02:27:38;2.83;;;2.20;;
75426;SDS011;64007;50.632;13.700;2023-06-10T02:30:03;4.07;;;2.28;;
75426;SDS011;64007;50.632;13.700;2023-06-10T02:32:30;4.28;;;2.42;;
75426;SDS011;64007;50.632;13.700;2023-06-10T02:34:55;4.32;;;2.50;;
75426;SDS011;64007;50.632;13.700;2023-06-10T02:37:21;6.90;;;2.15;;
75426;SDS011;64007;50.632;13.700;2023-06-10T02:39:47;3.33;;;2.47;;
75426;SDS011;64007;50.632;13.700;2023-06-10T02:42:13;4.90;;;2.30;;
75426;SDS011;64007;50.632;13.700;2023-06-10T02:44:38;4.05;;;2.10;;
75426;SDS011;64007;50.632;13.700;2023-06-10T02:47:05;4.00;;;2.15;;
75426;SDS011;64007;50.632;13.700;2023-06-10T02:49:31;3.67;;;2.10;;
75426;SDS011;64007;50.632;13.700;2023-06-10T02:51:56;2.45;;;2.10;;
75426;SDS011;64007;50.632;13.700;2023-06-10T02:54:22;3.60;;;2.13;;
75426;SDS011;64007;50.632;13.700;2023-06-10T02:56:49;5.65;;;2.50;;
75426;SDS011;64007;50.632;13.700;2023-06-10T02:59:14;4.38;;;2.22;;
75426;SDS011;64007;50.632;13.700;2023-06-10T03:01:40;3.08;;;2.10;;
75426;SDS011;64007;50.632;13.700;2023-06-10T03:04:06;5.70;;;2.25;;
75426;SDS011;64007;50.632;13.700;2023-06-10T03:06:33;12.15;;;2.70;;
75426;SDS011;64007;50.632;13.700;2023-06-10T03:09:03;3.50;;;2.25;;
75426;SDS011;64007;50.632;13.700;2023-06-10T03:11:29;7.05;;;2.50;;
75426;SDS011;64007;50.632;13.700;2023-06-10T03:13:56;5.32;;;2.60;;
75426;SDS011;64007;50.632;13.700;2023-06-10T03:16:22;7.10;;;2.80;;
75426;SDS011;64007;50.632;13.700;2023-06-10T03:18:50;8.20;;;2.67;;
75426;SDS011;64007;50.632;13.700;2023-06-10T03:21:16;3.03;;;2.40;;
75426;SDS011;64007;50.632;13.700;2023-06-10T03:23:42;7.03;;;3.10;;
75426;SDS011;64007;50.632;13.700;2023-06-10T03:26:08;4.22;;;2.60;;
75426;SDS011;64007;50.632;13.700;2023-06-10T03:28:35;4.40;;;2.92;;
75426;SDS011;64007;50.632;13.700;2023-06-10T03:31:01;6.50;;;2.90;;
75426;SDS011;64007;50.632;13.700;2023-06-10T03:33:27;5.72;;;3.42;;
75426;SDS011;64007;50.632;13.700;2023-06-10T03:35:53;5.35;;;3.88;;
75426;SDS011;64007;50.632;13.700;2023-06-10T03:38:18;7.85;;;4.30;;
75426;SDS011;64007;50.632;13.700;2023-06-10T03:40:44;6.88;;;4.07;;
75426;SDS011;64007;50.632;13.700;2023-06-10T03:43:10;11.23;;;4.15;;
75426;SDS011;64007;50.632;13.700;2023-06-10T03:45:36;11.48;;;4.18;;
75426;SDS011;64007;50.632;13.700;2023-06-10T03:48:02;5.50;;;3.78;;
75426;SDS011;64007;50.632;13.700;2023-06-10T03:50:29;6.55;;;3.90;;
75426;SDS011;64007;50.632;13.700;2023-06-10T03:52:54;7.85;;;3.53;;
75426;SDS011;64007;50.632;13.700;2023-06-10T03:55:20;7.28;;;3.55;;
75426;SDS011;64007;50.632;13.700;2023-06-10T03:57:47;4.95;;;3.50;;
75426;SDS011;64007;50.632;13.700;2023-06-10T04:00:14;6.05;;;3.30;;
75426;SDS011;64007;50.632;13.700;2023-06-10T04:02:42;5.72;;;3.58;;
75426;SDS011;64007;50.632;13.700;2023-06-10T04:05:14;3.80;;;3.30;;
75426;SDS011;64007;50.632;13.700;2023-06-10T04:07:41;10.98;;;3.60;;
75426;SDS011;64007;50.632;13.700;2023-06-10T04:10:08;4.03;;;3.35;;
75426;SDS011;64007;50.632;13.700;2023-06-10T04:12:35;9.98;;;4.70;;
75426;SDS011;64007;50.632;13.700;2023-06-10T04:15:01;4.93;;;2.90;;
75426;SDS011;64007;50.632;13.700;2023-06-10T04:17:28;3.85;;;3.03;;
75426;SDS011;64007;50.632;13.700;2023-06-10T04:19:53;9.15;;;3.33;;
75426;SDS011;64007;50.632;13.700;2023-06-10T04:22:20;7.88;;;3.35;;
75426;SDS011;64007;50.632;13.700;2023-06-10T04:24:46;3.78;;;3.10;;
75426;SDS011;64007;50.632;13.700;2023-06-10T04:27:12;4.50;;;3.28;;
75426;SDS011;64007;50.632;13.700;2023-06-10T04:29:38;5.90;;;3.42;;
75426;SDS011;64007;50.632;13.700;2023-06-10T04:32:03;6.68;;;3.67;;
75426;SDS011;64007;50.632;13.700;2023-06-10T04:34:32;4.75;;;3.50;;
75426;SDS011;64007;50.632;13.700;2023-06-10T04:36:58;9.48;;;3.67;;
75426;SDS011;64007;50.632;13.700;2023-06-10T04:39:24;6.15;;;3.60;;
75426;SDS011;64007;50.632;13.700;2023-06-10T04:41:50;5.10;;;3.45;;
75426;SDS011;64007;50.632;13.700;2023-06-10T04:44:16;5.13;;;3.70;;
75426;SDS011;64007;50.632;13.700;2023-06-10T04:46:41;5.55;;;3.47;;
75426;SDS011;64007;50.632;13.700;2023-06-10T04:49:07;9.75;;;3.50;;
75426;SDS011;64007;50.632;13.700;2023-06-10T04:51:33;6.88;;;3.78;;
75426;SDS011;64007;50.632;13.700;2023-06-10T04:53:59;5.00;;;3.53;;
75426;SDS011;64007;50.632;13.700;2023-06-10T04:56:29;6.00;;;3.55;;
75426;SDS011;64007;50.632;13.700;2023-06-10T04:58:58;7.93;;;3.67;;
75426;SDS011;64007;50.632;13.700;2023-06-10T05:01:24;6.63;;;3.50;;
75426;SDS011;64007;50.632;13.700;2023-06-10T05:03:50;4.97;;;3.20;;
75426;SDS011;64007;50.632;13.700;2023-06-10T05:06:16;4.55;;;3.15;;
75426;SDS011;64007;50.632;13.700;2023-06-10T05:08:42;6.55;;;3.38;;
75426;SDS011;64007;50.632;13.700;2023-06-10T05:11:08;5.20;;;3.85;;
75426;SDS011;64007;50.632;13.700;2023-06-10T05:13:34;6.57;;;3.90;;
75426;SDS011;64007;50.632;13.700;2023-06-10T05:15:59;7.22;;;3.92;;
75426;SDS011;64007;50.632;13.700;2023-06-10T05:18:25;7.80;;;4.05;;
75426;SDS011;64007;50.632;13.700;2023-06-10T05:20:51;7.13;;;4.05;;
75426;SDS011;64007;50.632;13.700;2023-06-10T05:23:19;5.18;;;3.92;;
75426;SDS011;64007;50.632;13.700;2023-06-10T05:25:45;8.20;;;4.10;;
75426;SDS011;64007;50.632;13.700;2023-06-10T05:28:11;11.13;;;4.57;;
75426;SDS011;64007;50.632;13.700;2023-06-10T05:30:37;7.53;;;4.32;;
75426;SDS011;64007;50.632;13.700;2023-06-10T05:33:04;9.60;;;4.43;;
75426;SDS011;64007;50.632;13.700;2023-06-10T05:35:30;7.85;;;4.30;;
75426;SDS011;64007;50.632;13.700;2023-06-10T05:37:56;10.13;;;4.38;;
75426;SDS011;64007;50.632;13.700;2023-06-10T05:40:22;7.57;;;4.68;;
75426;SDS011;64007;50.632;13.700;2023-06-10T05:42:49;9.48;;;4.45;;
75426;SDS011;64007;50.632;13.700;2023-06-10T05:45:14;7.82;;;3.92;;
75426;SDS011;64007;50.632;13.700;2023-06-10T05:47:40;5.82;;;4.00;;
75426;SDS011;64007;50.632;13.700;2023-06-10T05:50:06;4.90;;;3.45;;
75426;SDS011;64007;50.632;13.700;2023-06-10T05:52:34;5.53;;;4.10;;
75426;SDS011;64007;50.632;13.700;2023-06-10T05:55:01;7.57;;;4.50;;
75426;SDS011;64007;50.632;13.700;2023-06-10T05:57:27;8.90;;;4.22;;
75426;SDS011;64007;50.632;13.700;2023-06-10T05:59:53;7.07;;;4.38;;
75426;SDS011;64007;50.632;13.700;2023-06-10T06:02:19;5.68;;;4.45;;
75426;SDS011;64007;50.632;13.700;2023-06-10T06:04:45;6.78;;;4.50;;
75426;SDS011;64007;50.632;13.700;2023-06-10T06:07:10;7.78;;;4.40;;
75426;SDS011;64007;50.632;13.700;2023-06-10T06:09:36;7.10;;;4.90;;
75426;SDS011;64007;50.632;13.700;2023-06-10T06:12:02;9.25;;;4.40;;
75426;SDS011;64007;50.632;13.700;2023-06-10T06:14:30;7.55;;;3.92;;
75426;SDS011;64007;50.632;13.700;2023-06-10T06:16:57;7.32;;;3.78;;
75426;SDS011;64007;50.632;13.700;2023-06-10T06:19:23;6.93;;;4.18;;
75426;SDS011;64007;50.632;13.700;2023-06-10T06:21:49;7.18;;;3.70;;
75426;SDS011;64007;50.632;13.700;2023-06-10T06:24:15;6.90;;;4.28;;
75426;SDS011;64007;50.632;13.700;2023-06-10T06:26:41;5.78;;;4.38;;
75426;SDS011;64007;50.632;13.700;2023-06-10T06:29:07;6.78;;;4.55;;
75426;SDS011;64007;50.632;13.700;2023-06-10T06:31:33;9.43;;;4.88;;
75426;SDS011;64007;50.632;13.700;2023-06-10T06:33:59;8.27;;;4.45;;
75426;SDS011;64007;50.632;13.700;2023-06-10T06:36:24;11.68;;;4.70;;
75426;SDS011;64007;50.632;13.700;2023-06-10T06:38:50;9.93;;;5.13;;
75426;SDS011;64007;50.632;13.700;2023-06-10T06:41:16;6.63;;;5.03;;
75426;SDS011;64007;50.632;13.700;2023-06-10T06:43:42;10.23;;;5.03;;
75426;SDS011;64007;50.632;13.700;2023-06-10T06:46:08;6.43;;;4.18;;
75426;SDS011;64007;50.632;13.700;2023-06-10T06:48:34;10.18;;;4.60;;
75426;SDS011;64007;50.632;13.700;2023-06-10T06:51:00;9.10;;;4.80;;
75426;SDS011;64007;50.632;13.700;2023-06-10T06:53:26;6.20;;;4.55;;
75426;SDS011;64007;50.632;13.700;2023-06-10T06:55:52;14.02;;;4.40;;
75426;SDS011;64007;50.632;13.700;2023-06-10T06:58:18;9.40;;;5.30;;
75426;SDS011;64007;50.632;13.700;2023-06-10T07:00:43;8.50;;;4.45;;
75426;SDS011;64007;50.632;13.700;2023-06-10T07:03:09;7.97;;;3.90;;
75426;SDS011;64007;50.632;13.700;2023-06-10T07:05:35;5.70;;;4.00;;
75426;SDS011;64007;50.632;13.700;2023-06-10T07:08:01;9.38;;;3.85;;
75426;SDS011;64007;50.632;13.700;2023-06-10T07:10:27;8.10;;;4.60;;
75426;SDS011;64007;50.632;13.700;2023-06-10T07:12:53;5.35;;;4.68;;
75426;SDS011;64007;50.632;13.700;2023-06-10T07:15:19;8.18;;;4.45;;
75426;SDS011;64007;50.632;13.700;2023-06-10T07:17:45;5.60;;;4.10;;
75426;SDS011;64007;50.632;13.700;2023-06-10T07:20:11;5.80;;;4.30;;
75426;SDS011;64007;50.632;13.700;2023-06-10T07:22:37;5.60;;;4.50;;
75426;SDS011;64007;50.632;13.700;2023-06-10T07:25:06;6.57;;;4.38;;
75426;SDS011;64007;50.632;13.700;2023-06-10T07:27:32;10.05;;;4.53;;
75426;SDS011;64007;50.632;13.700;2023-06-10T07:29:58;7.22;;;4.38;;
75426;SDS011;64007;50.632;13.700;2023-06-10T07:32:23;7.25;;;4.32;;
75426;SDS011;64007;50.632;13.700;2023-06-10T07:34:49;6.80;;;4.50;;
75426;SDS011;64007;50.632;13.700;2023-06-10T07:37:16;11.68;;;4.85;;
75426;SDS011;64007;50.632;13.700;2023-06-10T07:39:42;7.15;;;4.75;;
75426;SDS011;64007;50.632;13.700;2023-06-10T07:42:08;6.88;;;4.53;;
75426;SDS011;64007;50.632;13.700;2023-06-10T07:44:34;7.07;;;4.65;;
75426;SDS011;64007;50.632;13.700;2023-06-10T07:47:00;6.25;;;4.18;;
75426;SDS011;64007;50.632;13.700;2023-06-10T07:49:25;6.53;;;4.30;;
75426;SDS011;64007;50.632;13.700;2023-06-10T07:51:53;7.30;;;5.10;;
75426;SDS011;64007;50.632;13.700;2023-06-10T07:54:20;7.07;;;4.72;;
75426;SDS011;64007;50.632;13.700;2023-06-10T07:56:45;6.22;;;4.28;;
75426;SDS011;64007;50.632;13.700;2023-06-10T07:59:13;8.20;;;5.10;;
75426;SDS011;64007;50.632;13.700;2023-06-10T08:01:39;7.50;;;4.53;;
75426;SDS011;64007;50.632;13.700;2023-06-10T08:04:05;10.55;;;4.50;;
75426;SDS011;64007;50.632;13.700;2023-06-10T08:06:31;9.30;;;4.50;;
75426;SDS011;64007;50.632;13.700;2023-06-10T08:08:57;10.15;;;4.20;;
75426;SDS011;64007;50.632;13.700;2023-06-10T08:11:22;7.22;;;4.53;;
75426;SDS011;64007;50.632;13.700;2023-06-10T08:13:48;10.07;;;4.20;;
75426;SDS011;64007;50.632;13.700;2023-06-10T08:16:14;7.97;;;4.88;;
75426;SDS011;64007;50.632;13.700;2023-06-10T08:18:39;7.70;;;4.57;;
75426;SDS011;64007;50.632;13.700;2023-06-10T08:21:05;6.43;;;4.47;;
75426;SDS011;64007;50.632;13.700;2023-06-10T08:23:31;7.32;;;4.38;;
75426;SDS011;64007;50.632;13.700;2023-06-10T08:25:57;8.48;;;4.78;;
75426;SDS011;64007;50.632;13.700;2023-06-10T08:28:23;5.95;;;4.60;;
75426;SDS011;64007;50.632;13.700;2023-06-10T08:30:49;6.05;;;4.20;;
75426;SDS011;64007;50.632;13.700;2023-06-10T08:33:14;6.53;;;3.95;;
75426;SDS011;64007;50.632;13.700;2023-06-10T08:35:40;9.30;;;4.57;;
75426;SDS011;64007;50.632;13.700;2023-06-10T08:38:06;10.35;;;4.90;;
75426;SDS011;64007;50.632;13.700;2023-06-10T08:40:32;5.55;;;4.53;;
75426;SDS011;64007;50.632;13.700;2023-06-10T08:43:08;7.57;;;4.90;;
75426;SDS011;64007;50.632;13.700;2023-06-10T08:45:42;6.00;;;4.45;;
75426;SDS011;64007;50.632;13.700;2023-06-10T08:48:10;9.23;;;4.80;;
75426;SDS011;64007;50.632;13.700;2023-06-10T08:50:39;6.65;;;4.35;;
75426;SDS011;64007;50.632;13.700;2023-06-10T08:53:06;6.03;;;4.22;;
75426;SDS011;64007;50.632;13.700;2023-06-10T08:55:35;8.48;;;4.40;;
75426;SDS011;64007;50.632;13.700;2023-06-10T08:58:03;5.45;;;4.10;;
75426;SDS011;64007;50.632;13.700;2023-06-10T09:00:29;5.32;;;3.88;;
75426;SDS011;64007;50.632;13.700;2023-06-10T09:02:56;6.78;;;4.22;;
75426;SDS011;64007;50.632;13.700;2023-06-10T09:05:24;7.03;;;3.97;;
75426;SDS011;64007;50.632;13.700;2023-06-10T09:07:51;7.68;;;4.05;;
75426;SDS011;64007;50.632;13.700;2023-06-10T09:10:18;5.53;;;3.70;;
75426;SDS011;64007;50.632;13.700;2023-06-10T09:12:43;5.55;;;4.03;;
75426;SDS011;64007;50.632;13.700;2023-06-10T09:15:10;8.52;;;4.05;;
75426;SDS011;64007;50.632;13.700;2023-06-10T09:17:37;6.38;;;4.22;;
75426;SDS011;64007;50.632;13.700;2023-06-10T09:20:08;6.03;;;3.67;;
75426;SDS011;64007;50.632;13.700;2023-06-10T09:22:35;5.75;;;3.83;;
75426;SDS011;64007;50.632;13.700;2023-06-10T09:25:07;9.93;;;4.30;;
75426;SDS011;64007;50.632;13.700;2023-06-10T09:27:47;5.97;;;3.85;;
75426;SDS011;64007;50.632;13.700;2023-06-10T09:32:54;8.20;;;3.72;;
75426;SDS011;64007;50.632;13.700;2023-06-10T09:35:22;9.88;;;3.83;;
75426;SDS011;64007;50.632;13.700;2023-06-10T09:37:52;4.15;;;3.60;;
75426;SDS011;64007;50.632;13.700;2023-06-10T09:40:18;5.82;;;3.63;;
75426;SDS011;64007;50.632;13.700;2023-06-10T09:42:45;5.50;;;3.38;;
75426;SDS011;64007;50.632;13.700;2023-06-10T09:45:10;5.90;;;3.47;;
75426;SDS011;64007;50.632;13.700;2023-06-10T09:47:36;7.35;;;3.72;;
75426;SDS011;64007;50.632;13.700;2023-06-10T09:50:02;4.60;;;3.40;;
75426;SDS011;64007;50.632;13.700;2023-06-10T09:52:29;8.05;;;3.70;;
75426;SDS011;64007;50.632;13.700;2023-06-10T09:55:01;5.45;;;3.88;;
75426;SDS011;64007;50.632;13.700;2023-06-10T09:57:33;5.95;;;3.60;;
75426;SDS011;64007;50.632;13.700;2023-06-10T09:59:59;6.60;;;3.90;;
75426;SDS011;64007;50.632;13.700;2023-06-10T10:02:29;5.97;;;3.90;;
75426;SDS011;64007;50.632;13.700;2023-06-10T10:05:01;6.97;;;3.53;;
75426;SDS011;64007;50.632;13.700;2023-06-10T10:07:29;7.47;;;3.63;;
75426;SDS011;64007;50.632;13.700;2023-06-10T10:09:56;7.60;;;3.55;;
75426;SDS011;64007;50.632;13.700;2023-06-10T10:12:21;4.97;;;3.47;;
75426;SDS011;64007;50.632;13.700;2023-06-10T10:14:48;10.15;;;4.07;;
75426;SDS011;64007;50.632;13.700;2023-06-10T10:17:15;6.40;;;3.83;;
75426;SDS011;64007;50.632;13.700;2023-06-10T10:19:48;5.07;;;3.60;;
75426;SDS011;64007;50.632;13.700;2023-06-10T10:22:20;5.93;;;3.67;;
75426;SDS011;64007;50.632;13.700;2023-06-10T10:24:59;6.82;;;3.92;;
75426;SDS011;64007;50.632;13.700;2023-06-10T10:27:36;5.63;;;3.30;;
75426;SDS011;64007;50.632;13.700;2023-06-10T10:30:07;6.50;;;3.67;;
75426;SDS011;64007;50.632;13.700;2023-06-10T10:32:51;7.90;;;3.60;;
75426;SDS011;64007;50.632;13.700;2023-06-10T10:35:24;4.63;;;3.72;;
75426;SDS011;64007;50.632;13.700;2023-06-10T10:37:51;5.47;;;3.70;;
75426;SDS011;64007;50.632;13.700;2023-06-10T10:40:18;5.50;;;3.92;;
75426;SDS011;64007;50.632;13.700;2023-06-10T10:42:47;9.82;;;4.25;;
75426;SDS011;64007;50.632;13.700;2023-06-10T10:45:14;8.18;;;4.00;;
75426;SDS011;64007;50.632;13.700;2023-06-10T10:47:40;6.65;;;3.78;;
75426;SDS011;64007;50.632;13.700;2023-06-10T10:50:15;6.72;;;4.60;;
75426;SDS011;64007;50.632;13.700;2023-06-10T10:52:55;5.95;;;4.15;;
75426;SDS011;64007;50.632;13.700;2023-06-10T10:55:24;8.07;;;4.55;;
75426;SDS011;64007;50.632;13.700;2023-06-10T10:58:06;5.03;;;4.32;;
75426;SDS011;64007;50.632;13.700;2023-06-10T11:00:34;5.78;;;3.78;;
75426;SDS011;64007;50.632;13.700;2023-06-10T11:03:05;5.68;;;3.60;;
75426;SDS011;64007;50.632;13.700;2023-06-10T11:05:36;6.60;;;4.38;;
75426;SDS011;64007;50.632;13.700;2023-06-10T11:08:07;5.32;;;3.90;;
75426;SDS011;64007;50.632;13.700;2023-06-10T11:10:36;8.52;;;4.10;;
75426;SDS011;64007;50.632;13.700;2023-06-10T11:13:06;6.57;;;4.10;;
75426;SDS011;64007;50.632;13.700;2023-06-10T11:15:34;6.05;;;3.90;;
75426;SDS011;64007;50.632;13.700;2023-06-10T11:18:14;6.88;;;4.05;;
75426;SDS011;64007;50.632;13.700;2023-06-10T11:34:08;7.40;;;3.80;;
75426;SDS011;64007;50.632;13.700;2023-06-10T11:36:36;7.97;;;3.63;;
75426;SDS011;64007;50.632;13.700;2023-06-10T11:39:10;7.55;;;3.80;;
75426;SDS011;64007;50.632;13.700;2023-06-10T11:41:37;6.68;;;3.40;;
75426;SDS011;64007;50.632;13.700;2023-06-10T11:44:05;5.68;;;3.60;;
75426;SDS011;64007;50.632;13.700;2023-06-10T11:46:34;7.65;;;3.55;;
75426;SDS011;64007;50.632;13.700;2023-06-10T11:49:00;5.18;;;3.20;;
75426;SDS011;64007;50.632;13.700;2023-06-10T11:51:28;5.32;;;3.50;;
75426;SDS011;64007;50.632;13.700;2023-06-10T11:53:55;8.10;;;3.25;;
75426;SDS011;64007;50.632;13.700;2023-06-10T11:56:22;7.97;;;3.58;;
75426;SDS011;64007;50.632;13.700;2023-06-10T11:59:07;5.90;;;3.25;;
75426;SDS011;64007;50.632;13.700;2023-06-10T12:01:34;7.45;;;3.38;;
75426;SDS011;64007;50.632;13.700;2023-06-10T12:04:03;8.10;;;3.30;;
75426;SDS011;64007;50.632;13.700;2023-06-10T12:06:39;4.32;;;3.00;;
75426;SDS011;64007;50.632;13.700;2023-06-10T12:09:15;7.53;;;3.50;;
75426;SDS011;64007;50.632;13.700;2023-06-10T12:11:44;5.60;;;3.30;;
75426;SDS011;64007;50.632;13.700;2023-06-10T12:14:10;5.93;;;3.08;;
75426;SDS011;64007;50.632;13.700;2023-06-10T12:16:36;4.55;;;3.10;;
75426;SDS011;64007;50.632;13.700;2023-06-10T12:19:02;5.30;;;3.30;;
75426;SDS011;64007;50.632;13.700;2023-06-10T12:21:29;6.10;;;3.03;;
75426;SDS011;64007;50.632;13.700;2023-06-10T12:24:14;6.53;;;3.28;;
75426;SDS011;64007;50.632;13.700;2023-06-10T12:26:41;4.97;;;3.28;;
75426;SDS011;64007;50.632;13.700;2023-06-10T12:29:17;4.25;;;3.08;;
75426;SDS011;64007;50.632;13.700;2023-06-10T12:31:59;4.28;;;3.25;;
75426;SDS011;64007;50.632;13.700;2023-06-10T12:34:29;6.53;;;3.30;;
75426;SDS011;64007;50.632;13.700;2023-06-10T12:36:57;6.70;;;3.40;;
75426;SDS011;64007;50.632;13.700;2023-06-10T12:39:22;5.20;;;3.15;;
75426;SDS011;64007;50.632;13.700;2023-06-10T12:41:49;5.90;;;3.60;;
75426;SDS011;64007;50.632;13.700;2023-06-10T12:44:16;6.85;;;3.60;;
75426;SDS011;64007;50.632;13.700;2023-06-10T12:46:42;5.60;;;3.45;;
75426;SDS011;64007;50.632;13.700;2023-06-10T12:49:07;7.05;;;3.33;;
75426;SDS011;64007;50.632;13.700;2023-06-10T12:51:33;6.03;;;3.30;;
75426;SDS011;64007;50.632;13.700;2023-06-10T12:54:00;9.00;;;3.35;;
75426;SDS011;64007;50.632;13.700;2023-06-10T12:56:26;6.32;;;3.35;;
75426;SDS011;64007;50.632;13.700;2023-06-10T12:58:51;4.28;;;3.13;;
75426;SDS011;64007;50.632;13.700;2023-06-10T13:01:17;6.63;;;3.38;;
75426;SDS011;64007;50.632;13.700;2023-06-10T13:03:43;5.18;;;3.30;;
75426;SDS011;64007;50.632;13.700;2023-06-10T13:06:09;5.32;;;3.78;;
75426;SDS011;64007;50.632;13.700;2023-06-10T13:08:34;5.18;;;3.20;;
75426;SDS011;64007;50.632;13.700;2023-06-10T13:11:00;7.75;;;3.50;;
75426;SDS011;64007;50.632;13.700;2023-06-10T13:13:26;6.65;;;3.55;;
75426;SDS011;64007;50.632;13.700;2023-06-10T13:15:52;4.80;;;3.38;;
75426;SDS011;64007;50.632;13.700;2023-06-10T13:18:17;4.32;;;3.53;;
75426;SDS011;64007;50.632;13.700;2023-06-10T13:20:44;10.70;;;3.78;;
75426;SDS011;64007;50.632;13.700;2023-06-10T13:23:09;8.75;;;3.80;;
75426;SDS011;64007;50.632;13.700;2023-06-10T13:25:36;6.57;;;3.45;;
75426;SDS011;64007;50.632;13.700;2023-06-10T13:28:01;5.97;;;3.42;;
75426;SDS011;64007;50.632;13.700;2023-06-10T13:30:28;6.97;;;3.40;;
75426;SDS011;64007;50.632;13.700;2023-06-10T13:32:53;4.57;;;3.50;;
75426;SDS011;64007;50.632;13.700;2023-06-10T13:35:19;5.25;;;3.50;;
75426;SDS011;64007;50.632;13.700;2023-06-10T13:37:45;9.35;;;3.60;;
75426;SDS011;64007;50.632;13.700;2023-06-10T13:40:11;7.10;;;3.47;;
75426;SDS011;64007;50.632;13.700;2023-06-10T13:42:37;5.50;;;3.50;;
75426;SDS011;64007;50.632;13.700;2023-06-10T13:45:04;5.70;;;3.70;;
75426;SDS011;64007;50.632;13.700;2023-06-10T13:47:31;7.97;;;3.72;;
75426;SDS011;64007;50.632;13.700;2023-06-10T13:49:57;4.45;;;3.58;;
75426;SDS011;64007;50.632;13.700;2023-06-10T13:52:22;4.68;;;3.42;;
75426;SDS011;64007;50.632;13.700;2023-06-10T13:54:48;5.15;;;3.47;;
75426;SDS011;64007;50.632;13.700;2023-06-10T13:57:14;7.13;;;3.53;;
75426;SDS011;64007;50.632;13.700;2023-06-10T13:59:40;6.80;;;3.80;;
75426;SDS011;64007;50.632;13.700;2023-06-10T14:02:05;5.20;;;3.47;;
75426;SDS011;64007;50.632;13.700;2023-06-10T14:04:31;5.20;;;3.83;;
75426;SDS011;64007;50.632;13.700;2023-06-10T14:06:57;7.40;;;3.53;;
75426;SDS011;64007;50.632;13.700;2023-06-10T14:09:23;4.32;;;3.40;;
75426;SDS011;64007;50.632;13.700;2023-06-10T14:11:49;10.10;;;3.47;;
75426;SDS011;64007;50.632;13.700;2023-06-10T14:14:15;5.00;;;3.72;;
75426;SDS011;64007;50.632;13.700;2023-06-10T14:16:40;6.00;;;3.42;;
75426;SDS011;64007;50.632;13.700;2023-06-10T14:19:06;12.18;;;3.33;;
75426;SDS011;64007;50.632;13.700;2023-06-10T14:21:32;10.48;;;3.50;;
75426;SDS011;64007;50.632;13.700;2023-06-10T14:23:58;4.75;;;3.25;;
75426;SDS011;64007;50.632;13.700;2023-06-10T14:26:23;7.65;;;3.70;;
75426;SDS011;64007;50.632;13.700;2023-06-10T14:28:51;5.70;;;3.28;;
75426;SDS011;64007;50.632;13.700;2023-06-10T14:31:17;5.50;;;3.05;;
75426;SDS011;64007;50.632;13.700;2023-06-10T14:33:43;5.28;;;3.40;;
75426;SDS011;64007;50.632;13.700;2023-06-10T14:36:09;5.32;;;3.28;;
75426;SDS011;64007;50.632;13.700;2023-06-10T14:38:36;5.68;;;4.00;;
75426;SDS011;64007;50.632;13.700;2023-06-10T14:41:01;5.13;;;3.70;;
75426;SDS011;64007;50.632;13.700;2023-06-10T14:43:27;6.47;;;3.50;;
75426;SDS011;64007;50.632;13.700;2023-06-10T14:45:53;8.20;;;4.00;;
75426;SDS011;64007;50.632;13.700;2023-06-10T14:48:21;4.18;;;3.30;;
75426;SDS011;64007;50.632;13.700;2023-06-10T14:50:47;5.95;;;3.45;;